createdAt,value
2023-01-26T00:01:46.663Z,85.77
2023-01-26T00:04:13.524Z,89.47
2023-01-26T00:06:40.365Z,84.33
2023-01-26T00:09:12.132Z,89.23
2023-01-26T00:11:39.501Z,86.70
2023-01-26T00:14:06.212Z,83.57
2023-01-26T00:16:34.301Z,88.87
2023-01-26T00:19:02.075Z,81.33
2023-01-26T00:21:28.924Z,85.47
2023-01-26T00:23:55.765Z,84.43
2023-01-26T00:26:25.851Z,79.73
2023-01-26T00:29:03.194Z,79.60
2023-01-26T00:31:30.126Z,77.70
2023-01-26T00:33:57.646Z,75.77
2023-01-26T00:36:24.855Z,78.37
2023-01-26T00:38:51.848Z,75.00
2023-01-26T00:41:37.890Z,71.47
2023-01-26T00:44:04.880Z,69.00
2023-01-26T00:46:31.715Z,60.27
2023-01-26T00:49:01.817Z,61.90
2023-01-26T00:51:28.664Z,63.60
2023-01-26T00:53:55.628Z,62.20
2023-01-26T00:56:22.582Z,63.07
2023-01-26T00:58:49.319Z,61.07
2023-01-26T01:01:16.177Z,54.97
2023-01-26T01:03:43.016Z,59.20
2023-01-26T01:06:09.896Z,62.63
2023-01-26T01:08:40.170Z,55.03
2023-01-26T01:11:10.860Z,57.60
2023-01-26T01:13:39.065Z,53.13
2023-01-26T01:16:18.337Z,58.53
2023-01-26T01:18:45.259Z,53.57
2023-01-26T01:21:17.654Z,59.07
2023-01-26T01:23:44.532Z,55.63
2023-01-26T01:26:12.368Z,55.27
2023-01-26T01:28:41.277Z,61.13
2023-01-26T01:31:13.042Z,58.80
2023-01-26T01:33:43.748Z,59.23
2023-01-26T01:36:16.838Z,60.13
2023-01-26T01:38:45.557Z,56.63
2023-01-26T01:41:22.688Z,57.87
2023-01-26T01:43:51.082Z,56.70
2023-01-26T01:46:35.581Z,53.93
2023-01-26T01:49:16.738Z,60.10
2023-01-26T01:52:03.891Z,56.07
2023-01-26T01:54:41.088Z,58.87
2023-01-26T01:57:27.765Z,55.67
2023-01-26T02:00:03.704Z,57.17
2023-01-26T02:05:33.334Z,54.20
2023-01-26T02:08:02.884Z,56.70
2023-01-26T02:10:31.290Z,51.47
2023-01-26T02:13:06.358Z,53.47
2023-01-26T02:15:33.285Z,49.00
2023-01-26T02:18:05.591Z,53.83
2023-01-26T02:20:52.763Z,49.10
2023-01-26T02:24:02.588Z,49.10
2023-01-26T02:26:35.228Z,47.37
2023-01-26T02:29:06.496Z,47.20
2023-01-26T02:31:38.242Z,46.37
2023-01-26T02:34:08.287Z,50.83
2023-01-26T02:36:35.477Z,48.67
2023-01-26T02:39:32.523Z,53.30
2023-01-26T02:42:21.157Z,48.17
2023-01-26T02:44:47.921Z,53.67
2023-01-26T02:47:19.833Z,50.23
2023-01-26T02:49:50.924Z,50.63
2023-01-26T02:52:23.537Z,50.27
2023-01-26T02:55:11.057Z,47.63
2023-01-26T02:57:38.096Z,47.20
2023-01-26T03:00:10.613Z,45.77
2023-01-26T03:02:40.073Z,51.67
2023-01-26T03:05:09.614Z,50.00
2023-01-26T03:07:36.474Z,49.43
2023-01-26T03:10:05.716Z,45.57
2023-01-26T03:12:32.550Z,45.90
2023-01-26T03:15:17.638Z,50.23
2023-01-26T03:17:44.953Z,43.50
2023-01-26T03:20:30.784Z,43.53
2023-01-26T03:23:16.226Z,43.93
2023-01-26T03:26:04.217Z,42.23
2023-01-26T03:28:32.033Z,47.00
2023-01-26T03:31:09.061Z,41.50
2023-01-26T03:33:38.612Z,48.23
2023-01-26T03:36:07.943Z,43.07
2023-01-26T03:38:35.071Z,39.93
2023-01-26T03:41:20.349Z,39.33
2023-01-26T03:44:08.246Z,44.67
2023-01-26T03:46:58.075Z,44.83
2023-01-26T03:49:43.344Z,41.90
2023-01-26T03:52:28.661Z,38.23
2023-01-26T03:55:14.934Z,40.53
2023-01-26T03:57:41.736Z,36.87
2023-01-26T04:00:09.937Z,37.10
2023-01-26T04:02:55.289Z,42.73
2023-01-26T04:05:40.552Z,44.27
2023-01-26T04:08:23.051Z,45.03
2023-01-26T04:10:59.212Z,42.87
2023-01-26T04:13:47.284Z,38.63
2023-01-26T04:16:32.682Z,39.60
2023-01-26T04:19:18.178Z,42.87
2023-01-26T04:21:47.246Z,33.37
2023-01-26T04:24:17.247Z,40.80
2023-01-26T04:26:44.571Z,39.57
2023-01-26T04:29:14.845Z,41.87
2023-01-26T04:31:45.069Z,35.50
2023-01-26T04:34:18.818Z,39.77
2023-01-26T04:36:45.603Z,40.73
2023-01-26T04:39:12.322Z,39.43
2023-01-26T04:41:45.973Z,36.97
2023-01-26T04:44:12.758Z,39.60
2023-01-26T04:46:39.479Z,34.07
2023-01-26T04:49:06.438Z,38.07
2023-01-26T04:51:33.408Z,39.17
2023-01-26T04:54:03.347Z,39.03
2023-01-26T04:56:34.957Z,35.33
2023-01-26T04:59:05.907Z,36.73
2023-01-26T05:01:33.435Z,36.80
2023-01-26T05:04:02.182Z,34.47
2023-01-26T05:06:29.815Z,37.10
2023-01-26T05:08:59.834Z,35.90
2023-01-26T05:11:26.739Z,37.33
2023-01-26T05:13:53.589Z,34.13
2023-01-26T05:16:20.433Z,35.50
2023-01-26T05:18:47.371Z,34.40
2023-01-26T05:21:14.210Z,36.03
2023-01-26T05:23:41.159Z,33.77
2023-01-26T05:26:08.141Z,37.17
2023-01-26T05:28:36.342Z,35.27
2023-01-26T05:31:03.529Z,37.10
2023-01-26T05:33:31.145Z,35.00
2023-01-26T05:36:07.077Z,35.30
2023-01-26T05:38:34.983Z,36.40
2023-01-26T05:41:01.944Z,32.63
2023-01-26T05:43:28.759Z,39.17
2023-01-26T05:45:55.830Z,36.67
2023-01-26T05:48:22.778Z,36.80
2023-01-26T05:50:49.550Z,36.67
2023-01-26T05:53:16.475Z,39.17
2023-01-26T05:55:43.773Z,35.50
2023-01-26T05:58:13.113Z,36.83
2023-01-26T06:00:39.938Z,37.67
2023-01-26T06:03:06.779Z,33.37
2023-01-26T06:05:41.730Z,40.40
2023-01-26T06:08:11.520Z,37.50
2023-01-26T06:10:38.249Z,36.07
2023-01-26T06:13:05.062Z,34.97
2023-01-26T06:15:31.940Z,38.80
2023-01-26T06:18:02.232Z,36.23
2023-01-26T06:20:28.994Z,40.87
2023-01-26T06:23:01.403Z,41.73
2023-01-26T06:25:28.143Z,41.57
2023-01-26T06:27:58.883Z,39.20
2023-01-26T06:30:28.935Z,41.10
2023-01-26T06:32:57.596Z,38.03
2023-01-26T06:35:26.426Z,34.50
2023-01-26T06:37:55.735Z,31.00
2023-01-26T06:40:22.587Z,36.33
2023-01-26T06:42:50.289Z,45.17
2023-01-26T06:45:20.439Z,164.77
2023-01-26T06:47:49.822Z,101.20
2023-01-26T06:50:20.815Z,65.43
2023-01-26T06:52:52.199Z,56.93
2023-01-26T06:55:37.248Z,42.63
2023-01-26T06:58:04.187Z,43.13
2023-01-26T07:00:31.227Z,34.73
2023-01-26T07:02:57.959Z,38.20
2023-01-26T07:05:24.664Z,35.90
2023-01-26T07:07:53.944Z,38.10
2023-01-26T07:10:20.967Z,40.20
2023-01-26T07:12:47.875Z,37.57
2023-01-26T07:15:14.706Z,41.80
2023-01-26T07:17:41.480Z,44.70
2023-01-26T07:20:09.673Z,47.20
2023-01-26T07:22:36.692Z,47.13
2023-01-26T07:25:03.672Z,43.80
2023-01-26T07:27:31.442Z,39.63
2023-01-26T07:29:58.256Z,44.23
2023-01-26T07:32:25.144Z,52.43
2023-01-26T07:34:51.901Z,41.13
2023-01-26T07:37:18.631Z,51.03
2023-01-26T07:39:45.377Z,48.13
2023-01-26T07:42:13.167Z,41.13
2023-01-26T07:44:39.930Z,51.73
2023-01-26T07:47:06.730Z,58.47
2023-01-26T07:49:33.697Z,53.37
2023-01-26T07:52:05.547Z,51.10
2023-01-26T07:54:35.521Z,49.53
2023-01-26T07:57:02.223Z,42.27
2023-01-26T07:59:29.031Z,52.50
2023-01-26T08:01:55.934Z,45.63
2023-01-26T08:04:22.735Z,45.53
2023-01-26T08:06:52.207Z,36.00
2023-01-26T08:09:19.365Z,36.43
2023-01-26T08:11:46.063Z,34.47
2023-01-26T08:14:12.829Z,36.73
2023-01-26T08:16:39.672Z,38.37
2023-01-26T08:19:06.407Z,34.87
2023-01-26T08:21:34.260Z,37.23
2023-01-26T08:24:03.278Z,31.33
2023-01-26T08:26:30.182Z,29.57
2023-01-26T08:28:57.116Z,33.03
2023-01-26T08:31:25.483Z,34.57
2023-01-26T08:33:54.358Z,29.53
2023-01-26T08:36:23.146Z,37.07
2023-01-26T08:38:51.737Z,32.33
2023-01-26T08:41:19.244Z,33.33
2023-01-26T08:43:46.171Z,32.20
2023-01-26T08:46:15.848Z,33.30
2023-01-26T08:48:42.884Z,33.50
2023-01-26T08:51:09.715Z,32.77
2023-01-26T08:53:37.600Z,29.57
2023-01-26T08:56:07.309Z,27.47
2023-01-26T08:58:35.100Z,30.70
2023-01-26T09:01:12.454Z,34.10
2023-01-26T09:03:39.611Z,28.57
2023-01-26T09:06:09.462Z,26.00
2023-01-26T09:08:36.945Z,28.23
2023-01-26T09:11:07.369Z,23.73
2023-01-26T09:13:34.247Z,22.30
2023-01-26T09:16:08.524Z,26.53
2023-01-26T09:18:35.258Z,26.70
2023-01-26T09:21:07.460Z,26.43
2023-01-26T09:23:35.947Z,21.40
2023-01-26T09:26:03.386Z,19.83
2023-01-26T09:28:30.591Z,23.73
2023-01-26T09:30:57.568Z,18.37
2023-01-26T09:33:25.437Z,22.03
2023-01-26T09:35:52.213Z,18.83
2023-01-26T09:38:19.056Z,18.73
2023-01-26T09:41:21.258Z,19.67
2023-01-26T09:43:56.700Z,13.67
2023-01-26T09:46:40.029Z,9.07
2023-01-26T09:49:16.864Z,18.73
2023-01-26T09:52:12.185Z,13.23
2023-01-26T09:54:49.088Z,22.43
2023-01-26T09:57:49.369Z,17.73
2023-01-26T10:00:41.229Z,15.80
2023-01-26T10:03:47.385Z,13.53
2023-01-26T10:06:31.683Z,18.57
2023-01-26T10:09:23.734Z,14.23
2023-01-26T10:11:58.053Z,13.17
2023-01-26T10:14:40.620Z,14.50
2023-01-26T10:17:20.186Z,19.23
2023-01-26T10:20:00.635Z,18.90
2023-01-26T10:22:54.147Z,9.30
2023-01-26T10:25:48.322Z,15.10
2023-01-26T10:28:47.709Z,15.00
2023-01-26T10:31:28.271Z,9.70
2023-01-26T10:34:18.306Z,12.93
2023-01-26T10:36:47.458Z,12.70
2023-01-26T10:39:18.324Z,12.67
2023-01-26T10:42:01.886Z,11.60
2023-01-26T10:44:38.212Z,15.97
2023-01-26T10:47:13.541Z,11.60
2023-01-26T10:49:41.172Z,13.17
2023-01-26T10:52:21.775Z,12.13
2023-01-26T10:55:09.068Z,11.90
2023-01-26T10:57:41.180Z,16.77
2023-01-26T11:00:29.117Z,18.07
2023-01-26T11:03:06.127Z,16.60
2023-01-26T11:05:33.483Z,14.33
2023-01-26T11:08:02.780Z,16.17
2023-01-26T11:10:34.382Z,18.27
2023-01-26T11:13:24.869Z,14.53
2023-01-26T11:16:24.962Z,11.53
2023-01-26T11:19:12.260Z,18.40
2023-01-26T11:21:53.848Z,13.20
2023-01-26T11:24:34.270Z,15.63
2023-01-26T11:27:31.312Z,9.40
2023-01-26T11:30:47.994Z,11.63
2023-01-26T11:34:02.771Z,16.90
2023-01-26T11:37:00.413Z,15.97
2023-01-26T11:39:58.955Z,9.10
2023-01-26T11:42:51.633Z,12.40
2023-01-26T11:45:51.012Z,15.33
2023-01-26T11:48:42.805Z,12.43
2023-01-26T11:51:35.914Z,12.47
2023-01-26T11:54:29.799Z,13.10
2023-01-26T11:57:34.570Z,22.23
2023-01-26T12:00:28.672Z,9.07
2023-01-26T12:03:04.616Z,15.80
2023-01-26T12:06:01.436Z,16.87
2023-01-26T12:08:39.761Z,9.90
2023-01-26T12:11:33.673Z,15.37
2023-01-26T12:14:12.343Z,14.10
2023-01-26T12:17:18.002Z,10.30
2023-01-26T12:20:21.153Z,10.80
2023-01-26T12:23:03.506Z,14.77
2023-01-26T12:25:59.917Z,13.37
2023-01-26T12:29:09.882Z,14.77
2023-01-26T12:31:59.017Z,13.77
2023-01-26T12:34:33.746Z,8.67
2023-01-26T12:37:18.657Z,14.07
2023-01-26T12:40:09.215Z,8.53
2023-01-26T12:43:16.383Z,9.53
2023-01-26T12:45:47.733Z,9.13
2023-01-26T12:48:52.953Z,9.83
2023-01-26T12:51:50.541Z,10.30
2023-01-26T12:54:43.746Z,6.00
2023-01-26T12:57:20.091Z,13.23
2023-01-26T12:59:49.185Z,8.77
2023-01-26T13:02:16.066Z,9.63
2023-01-26T13:04:47.952Z,8.70
2023-01-26T13:07:37.646Z,13.13
2023-01-26T13:10:19.536Z,8.40
2023-01-26T13:12:53.701Z,8.30
2023-01-26T13:15:24.749Z,10.23
2023-01-26T13:17:55.621Z,13.87
2023-01-26T13:20:29.333Z,8.50
2023-01-26T13:22:56.796Z,15.40
2023-01-26T13:25:33.392Z,7.77
2023-01-26T13:28:03.788Z,7.10
2023-01-26T13:30:47.538Z,14.10
2023-01-26T13:33:26.709Z,7.30
2023-01-26T13:35:55.493Z,9.23
2023-01-26T13:38:35.347Z,9.63
2023-01-26T13:41:17.510Z,10.27
2023-01-26T13:43:52.591Z,8.47
2023-01-26T13:47:12.603Z,8.70
2023-01-26T13:49:42.589Z,8.57
2023-01-26T13:52:29.596Z,9.77
2023-01-26T13:55:01.935Z,7.73
2023-01-26T13:57:30.551Z,7.50
2023-01-26T14:00:01.485Z,8.67
2023-01-26T14:02:34.686Z,11.77
2023-01-26T14:05:03.271Z,9.37
2023-01-26T14:07:42.950Z,8.53
2023-01-26T14:10:22.336Z,9.43
2023-01-26T14:12:58.074Z,9.57
2023-01-26T14:15:30.011Z,13.03
2023-01-26T14:17:58.583Z,9.53
2023-01-26T14:20:34.345Z,9.77
2023-01-26T14:23:18.791Z,7.77
2023-01-26T14:26:01.698Z,10.30
2023-01-26T14:28:40.738Z,6.27
2023-01-26T14:31:21.622Z,9.53
2023-01-26T14:33:53.266Z,8.07
2023-01-26T14:36:21.669Z,9.63
2023-01-26T14:38:51.812Z,10.03
2023-01-26T14:41:28.500Z,7.50
2023-01-26T14:43:59.902Z,9.20
2023-01-26T14:46:29.779Z,14.43
2023-01-26T14:49:23.480Z,12.03
2023-01-26T14:51:57.722Z,14.27
2023-01-26T14:54:39.341Z,12.23
2023-01-26T14:57:09.521Z,10.50
2023-01-26T14:59:41.191Z,13.73
2023-01-26T15:02:16.881Z,12.23
2023-01-26T15:04:53.169Z,11.03
2023-01-26T15:07:41.272Z,8.67
2023-01-26T15:10:43.545Z,8.47
2023-01-26T15:13:10.349Z,9.83
2023-01-26T15:15:51.087Z,6.03
2023-01-26T15:18:20.899Z,11.10
2023-01-26T15:21:00.121Z,6.43
2023-01-26T15:23:34.658Z,10.87
2023-01-26T15:26:29.173Z,9.97
2023-01-26T15:29:00.710Z,10.03
2023-01-26T15:31:37.147Z,7.27
2023-01-26T15:34:07.223Z,11.73
2023-01-26T15:36:47.884Z,5.03
2023-01-26T15:39:17.970Z,7.73
2023-01-26T15:42:15.636Z,5.77
2023-01-26T15:44:42.761Z,4.47
2023-01-26T15:47:13.845Z,12.80
2023-01-26T15:49:42.037Z,9.40
2023-01-26T15:52:17.610Z,8.23
2023-01-26T15:54:45.285Z,8.90
2023-01-26T15:57:12.977Z,4.00
2023-01-26T15:59:40.663Z,9.03
2023-01-26T16:02:20.300Z,6.10
2023-01-26T16:04:47.822Z,6.50
2023-01-26T16:07:18.038Z,4.10
2023-01-26T16:09:45.370Z,8.17
2023-01-26T16:12:33.460Z,10.40
2023-01-26T16:15:00.509Z,8.33
2023-01-26T16:17:27.351Z,7.30
2023-01-26T16:19:54.243Z,6.27
2023-01-26T16:22:21.250Z,10.60
2023-01-26T16:24:48.018Z,7.67
2023-01-26T16:27:14.792Z,5.00
2023-01-26T16:29:41.529Z,7.90
2023-01-26T16:32:37.606Z,6.87
2023-01-26T16:35:16.130Z,7.17
2023-01-26T16:37:43.649Z,8.50
2023-01-26T16:40:14.101Z,4.50
2023-01-26T16:42:47.730Z,10.80
2023-01-26T16:45:20.629Z,8.00
2023-01-26T16:47:57.344Z,5.73
2023-01-26T16:50:25.809Z,6.37
2023-01-26T16:52:53.260Z,7.63
2023-01-26T16:55:20.191Z,5.80
2023-01-26T16:57:49.727Z,6.83
2023-01-26T17:00:20.606Z,9.97
2023-01-26T17:02:52.501Z,10.40
2023-01-26T17:05:21.723Z,8.53
2023-01-26T17:07:50.724Z,9.80
2023-01-26T17:10:18.724Z,9.67
2023-01-26T17:12:45.551Z,8.63
2023-01-26T17:15:13.780Z,12.03
2023-01-26T17:17:49.591Z,13.40
2023-01-26T17:20:20.207Z,4.40
2023-01-26T17:22:48.618Z,13.43
2023-01-26T17:25:18.266Z,9.03
2023-01-26T17:27:46.586Z,10.93
2023-01-26T17:30:13.770Z,10.00
2023-01-26T17:32:42.654Z,13.03
2023-01-26T17:35:10.334Z,11.73
2023-01-26T17:37:38.071Z,11.67
2023-01-26T17:40:08.041Z,8.00
2023-01-26T17:42:36.142Z,10.13
2023-01-26T17:45:04.292Z,10.57
2023-01-26T17:47:34.673Z,10.77
2023-01-26T17:50:02.016Z,11.67
2023-01-26T17:52:28.870Z,8.50
2023-01-26T17:54:55.659Z,12.13
2023-01-26T17:57:25.430Z,12.37
2023-01-26T17:59:52.382Z,6.90
2023-01-26T18:02:19.154Z,7.93
2023-01-26T18:04:45.938Z,11.47
2023-01-26T18:07:12.726Z,7.97
2023-01-26T18:09:39.469Z,11.90
2023-01-26T18:12:09.660Z,12.20
2023-01-26T18:14:36.467Z,7.93
2023-01-26T18:17:03.299Z,10.43
2023-01-26T18:19:30.108Z,7.73
2023-01-26T18:21:57.097Z,8.40
2023-01-26T18:24:23.873Z,11.40
2023-01-26T18:26:50.721Z,9.40
2023-01-26T18:29:17.511Z,9.13
2023-01-26T18:31:44.362Z,9.60
2023-01-26T18:34:11.781Z,11.67
2023-01-26T18:36:38.696Z,6.83
2023-01-26T18:39:11.390Z,11.67
2023-01-26T18:41:40.893Z,11.30
2023-01-26T18:44:11.310Z,8.73
2023-01-26T18:46:38.599Z,9.30
2023-01-26T18:49:05.567Z,10.53
2023-01-26T18:51:35.898Z,11.57
2023-01-26T18:54:04.817Z,10.43
2023-01-26T18:56:32.508Z,11.93
2023-01-26T18:58:59.847Z,6.57
2023-01-26T19:01:26.860Z,14.40
2023-01-26T19:03:55.578Z,10.70
2023-01-26T19:06:25.367Z,10.77
2023-01-26T19:09:00.584Z,8.47
2023-01-26T19:11:33.377Z,12.43
2023-01-26T19:14:01.931Z,6.87
2023-01-26T19:16:30.147Z,9.27
2023-01-26T19:18:57.557Z,11.83
2023-01-26T19:21:28.788Z,6.90
2023-01-26T19:23:58.655Z,10.33
2023-01-26T19:26:30.944Z,9.10
2023-01-26T19:28:59.110Z,7.33
2023-01-26T19:31:27.697Z,8.50
2023-01-26T19:34:01.592Z,9.77
2023-01-26T19:36:32.209Z,11.07
2023-01-26T19:38:59.364Z,11.37
2023-01-26T19:41:26.527Z,9.10
2023-01-26T19:43:53.424Z,8.73
2023-01-26T19:46:21.425Z,11.60
2023-01-26T19:48:49.244Z,9.67
2023-01-26T19:51:24.077Z,9.30
2023-01-26T19:53:56.224Z,8.43
2023-01-26T19:56:29.986Z,12.73
2023-01-26T19:59:04.268Z,10.27
2023-01-26T20:01:32.611Z,12.07
2023-01-26T20:04:04.225Z,10.63
2023-01-26T20:06:34.974Z,7.50
2023-01-26T20:09:07.535Z,13.20
2023-01-26T20:11:34.997Z,14.97
2023-01-26T20:14:11.018Z,10.43
2023-01-26T20:16:38.032Z,8.23
2023-01-26T20:19:05.166Z,13.20
2023-01-26T20:21:33.592Z,11.37
2023-01-26T20:24:05.542Z,8.80
2023-01-26T20:26:34.956Z,16.97
2023-01-26T20:29:01.876Z,7.93
2023-01-26T20:31:31.102Z,10.90
2023-01-26T20:33:58.463Z,11.23
2023-01-26T20:36:28.476Z,11.30
2023-01-26T20:39:02.670Z,5.63
2023-01-26T20:41:35.950Z,19.00
2023-01-26T20:44:06.238Z,12.70
2023-01-26T20:46:41.031Z,13.40
2023-01-26T20:49:15.176Z,9.73
2023-01-26T20:51:46.152Z,13.73
2023-01-26T20:54:16.414Z,14.60
2023-01-26T20:56:45.720Z,12.97
2023-01-26T20:59:12.910Z,9.07
2023-01-26T21:01:40.890Z,17.63
2023-01-26T21:04:07.841Z,9.80
2023-01-26T21:06:36.108Z,12.40
2023-01-26T21:09:11.612Z,11.03
2023-01-26T21:11:40.359Z,12.93
2023-01-26T21:14:13.491Z,12.87
2023-01-26T21:16:43.449Z,14.70
2023-01-26T21:19:13.407Z,9.83
2023-01-26T21:21:44.073Z,8.33
2023-01-26T21:24:11.375Z,17.07
2023-01-26T21:26:38.678Z,11.07
2023-01-26T21:29:07.534Z,16.37
2023-01-26T21:31:34.576Z,11.33
2023-01-26T21:34:01.718Z,13.33
2023-01-26T21:36:31.729Z,12.07
2023-01-26T21:39:00.767Z,13.33
2023-01-26T21:41:55.195Z,13.63
2023-01-26T21:44:24.744Z,8.80
2023-01-26T21:46:59.334Z,16.47
2023-01-26T21:49:28.394Z,11.33
2023-01-26T21:52:17.336Z,14.73
2023-01-26T21:54:44.109Z,14.97
2023-01-26T21:57:30.227Z,12.87
2023-01-26T21:59:57.194Z,11.80
2023-01-26T22:02:24.177Z,12.03
2023-01-26T22:04:51.606Z,11.53
2023-01-26T22:07:18.732Z,9.67
2023-01-26T22:09:45.710Z,6.90
2023-01-26T22:12:12.464Z,10.03
2023-01-26T22:14:39.672Z,11.07
2023-01-26T22:17:09.504Z,14.70
2023-01-26T22:19:36.225Z,13.47
2023-01-26T22:22:03.417Z,12.77
2023-01-26T22:24:30.248Z,9.57
2023-01-26T22:26:57.017Z,17.93
2023-01-26T22:29:23.852Z,11.47
2023-01-26T22:31:53.763Z,11.27
2023-01-26T22:34:23.880Z,9.87
2023-01-26T22:36:50.854Z,13.87
2023-01-26T22:39:19.760Z,7.60
2023-01-26T22:41:46.530Z,14.70
2023-01-26T22:44:13.321Z,10.17
2023-01-26T22:46:40.156Z,13.07
2023-01-26T22:49:06.907Z,11.83
2023-01-26T22:51:37.117Z,8.67
2023-01-26T22:54:07.189Z,14.10
2023-01-26T22:56:34.056Z,8.43
2023-01-26T22:59:01.010Z,6.00
2023-01-26T23:01:33.228Z,5.87
2023-01-26T23:04:03.341Z,11.00
2023-01-26T23:06:30.397Z,8.07
2023-01-26T23:09:02.151Z,7.13
2023-01-26T23:11:30.458Z,8.33
2023-01-26T23:14:00.020Z,11.77
2023-01-26T23:16:27.919Z,5.33
2023-01-26T23:18:59.650Z,8.53
2023-01-26T23:21:28.358Z,9.53
2023-01-26T23:23:55.751Z,7.67
2023-01-26T23:26:25.761Z,9.07
2023-01-26T23:28:52.773Z,6.83
2023-01-26T23:31:20.394Z,9.47
2023-01-26T23:33:47.925Z,5.17
2023-01-26T23:36:15.706Z,7.53
2023-01-26T23:38:44.167Z,8.27
2023-01-26T23:41:14.418Z,6.17
2023-01-26T23:43:44.485Z,10.07
2023-01-26T23:46:12.513Z,11.87
2023-01-26T23:48:39.582Z,8.50
2023-01-26T23:51:10.739Z,9.97
2023-01-26T23:53:38.542Z,5.07
2023-01-26T23:56:15.044Z,8.77
2023-01-26T23:58:45.828Z,5.63
